Time;durP1;ratioP1;P1;durP2;ratioP2;P2;SDS_P1;SDS_P2;PMS_P1;PMS_P2;Temp;Humidity;BMP_temperature;BMP_pressure;BME280_temperature;BME280_humidity;BME280_pressure;Samples;Min_cycle;Max_cycle;Signal;HPM_P1;HPM_P2
2022/11/01 00:02:13;;;;;;;;;;;9.90;99.90;;;;;;5011738;28;19929;-78
2022/11/01 00:04:45;;;;;;;;;;;10.00;99.90;;;;;;5024706;28;19976;-78
2022/11/01 00:07:16;;;;;;;;;;;10.00;99.90;;;;;;5008700;28;19933;-75
2022/11/01 00:09:43;;;;;;;;;;;10.00;99.90;;;;;;5010507;28;19933;-76
2022/11/01 00:12:14;;;;;;;;;;;10.00;99.90;;;;;;5008690;28;19929;-75
2022/11/01 00:14:41;;;;;;;;;;;10.00;99.90;;;;;;5006812;28;19929;-76
2022/11/01 00:17:12;;;;;;;;;;;10.10;99.90;;;;;;5010595;28;19933;-80
2022/11/01 00:19:39;;;;;;;;;;;10.10;99.90;;;;;;5021419;28;19980;-76
2022/11/01 00:22:10;;;;;;;;;;;10.10;99.90;;;;;;5025975;28;19930;-76
2022/11/01 00:24:42;;;;;;;;;;;10.20;99.90;;;;;;5007896;28;19925;-76
2022/11/01 00:27:14;;;;;;;;;;;10.20;99.90;;;;;;5023309;28;19991;-76
2022/11/01 00:29:45;;;;;;;;;;;10.20;99.90;;;;;;5024611;28;19929;-79
2022/11/01 00:32:17;;;;;;;;;;;10.20;99.90;;;;;;5024115;28;19932;-76
2022/11/01 00:34:43;;;;;;;;;;;10.20;99.90;;;;;;5004812;28;19934;-78
2022/11/01 00:37:15;;;;;;;;;;;10.20;99.90;;;;;;5007139;28;19926;-76
2022/11/01 00:39:46;;;;;;;;;;;10.20;99.90;;;;;;5025292;28;19992;-74
2022/11/01 00:42:18;;;;;;;;;;;10.10;99.90;;;;;;5006817;28;19929;-76
2022/11/01 00:44:49;;;;;;;;;;;10.10;99.90;;;;;;5022498;28;19991;-74
2022/11/01 00:47:21;;;;;;;;;;;10.10;99.90;;;;;;5005927;28;19929;-74
2022/11/01 00:49:47;;;;;;;;;;;10.10;99.90;;;;;;5023958;28;19925;-75
2022/11/01 00:52:15;;;;;;;;;;;10.10;99.90;;;;;;5007028;28;20273;-75
2022/11/01 00:54:46;;;;;;;;;;;10.00;99.90;;;;;;5022434;28;19933;-75
2022/11/01 00:57:13;;;;;;;;;;;10.00;99.90;;;;;;5024722;28;19929;-76
2022/11/01 00:59:39;;;;;;;;;;;9.90;99.90;;;;;;5022323;28;19972;-77
2022/11/01 01:02:11;;;;;;;;;;;10.00;99.90;;;;;;5010060;28;19934;-75
2022/11/01 01:04:42;;;;;;;;;;;9.90;99.90;;;;;;5003478;28;19970;-74
2022/11/01 01:07:09;;;;;;;;;;;9.90;99.90;;;;;;5007697;28;19926;-74
2022/11/01 01:09:41;;;;;;;;;;;9.80;99.90;;;;;;5008149;28;19925;-77
2022/11/01 01:12:12;;;;;;;;;;;9.80;99.90;;;;;;5017174;28;20297;-76
2022/11/01 01:14:39;;;;;;;;;;;9.80;99.90;;;;;;5022851;28;20380;-75
2022/11/01 01:17:10;;;;;;;;;;;9.80;99.90;;;;;;5022017;28;19937;-76
2022/11/01 01:19:37;;;;;;;;;;;9.80;99.90;;;;;;5007525;28;19935;-74
2022/11/01 01:22:04;;;;;;;;;;;9.80;99.90;;;;;;5022790;28;20392;-75
2022/11/01 01:24:35;;;;;;;;;;;9.80;99.90;;;;;;5007096;28;19960;-76
2022/11/01 01:27:02;;;;;;;;;;;9.80;99.90;;;;;;5009402;28;20331;-75
2022/11/01 01:29:36;;;;;;;;;;;9.70;99.90;;;;;;5005417;28;19967;-73
2022/11/01 01:32:08;;;;;;;;;;;9.70;99.90;;;;;;5022437;28;19988;-75
2022/11/01 01:34:39;;;;;;;;;;;9.60;99.90;;;;;;5016860;28;19956;-78
2022/11/01 01:37:07;;;;;;;;;;;9.60;99.90;;;;;;5024157;28;19929;-76
2022/11/01 01:39:39;;;;;;;;;;;9.60;99.90;;;;;;5023849;28;19984;-76
2022/11/01 01:42:20;;;;;;;;;;;9.60;99.90;;;;;;5024368;28;19933;-75
2022/11/01 01:44:55;;;;;;;;;;;9.50;99.90;;;;;;5005333;28;19933;-74
2022/11/01 01:47:26;;;;;;;;;;;9.50;99.90;;;;;;5009020;28;20343;-77
2022/11/01 01:49:54;;;;;;;;;;;9.50;99.90;;;;;;4992032;28;19934;-74
2022/11/01 01:52:31;;;;;;;;;;;9.50;99.90;;;;;;4991867;28;19929;-73
2022/11/01 01:55:05;;;;;;;;;;;9.40;99.90;;;;;;5021268;28;20180;-75
2022/11/01 01:57:32;;;;;;;;;;;9.40;99.90;;;;;;5007532;28;19929;-76
2022/11/01 02:00:04;;;;;;;;;;;9.40;99.90;;;;;;5007429;28;20372;-75
2022/11/01 02:02:40;;;;;;;;;;;9.40;99.90;;;;;;5006237;28;19981;-77
2022/11/01 02:05:21;;;;;;;;;;;9.40;99.90;;;;;;5005662;28;20375;-75
2022/11/01 02:07:53;;;;;;;;;;;9.40;99.90;;;;;;5008117;28;19932;-76
2022/11/01 02:10:25;;;;;;;;;;;9.40;99.90;;;;;;4988604;28;19975;-75
2022/11/01 02:12:57;;;;;;;;;;;9.40;99.90;;;;;;5006159;28;19929;-77
2022/11/01 02:15:34;;;;;;;;;;;9.40;99.90;;;;;;5005612;28;19958;-77
2022/11/01 02:18:07;;;;;;;;;;;9.50;99.90;;;;;;5007173;28;19933;-76
2022/11/01 02:20:41;;;;;;;;;;;9.50;99.90;;;;;;5006146;28;19929;-76
2022/11/01 02:23:34;;;;;;;;;;;9.60;99.90;;;;;;5020962;28;19933;-77
2022/11/01 02:26:07;;;;;;;;;;;9.60;99.90;;;;;;5003319;28;19925;-76
2022/11/01 02:29:09;;;;;;;;;;;9.60;99.90;;;;;;5022869;28;20272;-75
2022/11/01 02:31:59;;;;;;;;;;;9.60;99.90;;;;;;4925047;29;19986;-75
2022/11/01 02:34:34;;;;;;;;;;;9.60;99.90;;;;;;5001307;28;19929;-76
2022/11/01 02:37:18;;;;;;;;;;;9.60;99.90;;;;;;5021549;28;20434;-77
2022/11/01 02:39:56;;;;;;;;;;;9.50;99.90;;;;;;4989610;28;19949;-76
2022/11/01 02:42:43;;;;;;;;;;;9.50;99.90;;;;;;5004531;28;19988;-78
2022/11/01 02:45:33;;;;;;;;;;;9.50;99.90;;;;;;5020974;28;20280;-77
2022/11/01 02:48:05;;;;;;;;;;;9.50;99.90;;;;;;5022494;28;19937;-76
2022/11/01 02:50:45;;;;;;;;;;;9.50;99.90;;;;;;5007008;28;19979;-77
2022/11/01 02:53:16;;;;;;;;;;;9.40;99.90;;;;;;4987836;28;19929;-76
2022/11/01 02:55:50;;;;;;;;;;;9.40;99.90;;;;;;5025785;28;19933;-75
2022/11/01 02:58:23;;;;;;;;;;;9.30;99.90;;;;;;5026700;28;19988;-76
2022/11/01 03:00:55;;;;;;;;;;;9.30;99.90;;;;;;5011861;28;19929;-73
2022/11/01 03:03:29;;;;;;;;;;;9.20;99.90;;;;;;5013936;28;20447;-76
2022/11/01 03:06:08;;;;;;;;;;;9.20;99.90;;;;;;5026293;28;19984;-76
2022/11/01 03:08:38;;;;;;;;;;;9.10;99.90;;;;;;5026717;28;19929;-77
2022/11/01 03:11:21;;;;;;;;;;;9.10;99.90;;;;;;5009893;28;19930;-75
2022/11/01 03:13:59;;;;;;;;;;;9.10;99.90;;;;;;5024298;28;19933;-76
2022/11/01 03:16:35;;;;;;;;;;;9.00;99.90;;;;;;5025730;28;19925;-76
2022/11/01 03:19:05;;;;;;;;;;;9.10;99.90;;;;;;4994144;28;19977;-77
2022/11/01 03:21:40;;;;;;;;;;;9.10;99.90;;;;;;4994051;28;19937;-76
2022/11/01 03:24:14;;;;;;;;;;;9.10;99.90;;;;;;5008842;28;19933;-76
2022/11/01 03:26:42;;;;;;;;;;;9.00;99.90;;;;;;5009661;28;20449;-77
2022/11/01 03:29:10;;;;;;;;;;;9.00;99.90;;;;;;5026770;28;19925;-78
2022/11/01 03:31:38;;;;;;;;;;;9.00;99.90;;;;;;5026264;28;19929;-74
2022/11/01 03:34:14;;;;;;;;;;;9.00;99.90;;;;;;5023707;28;20443;-76
2022/11/01 03:36:44;;;;;;;;;;;9.00;99.90;;;;;;5009538;28;19929;-74
2022/11/01 03:39:14;;;;;;;;;;;9.00;99.90;;;;;;5008204;28;19937;-76
2022/11/01 03:41:45;;;;;;;;;;;9.00;99.90;;;;;;5026654;28;19925;-74
2022/11/01 03:44:13;;;;;;;;;;;9.00;99.90;;;;;;5009665;28;19926;-75
2022/11/01 03:46:40;;;;;;;;;;;9.10;99.90;;;;;;5026687;28;19925;-77
2022/11/01 03:49:06;;;;;;;;;;;9.10;99.90;;;;;;5028177;28;19926;-78
2022/11/01 03:51:38;;;;;;;;;;;9.10;99.90;;;;;;5010782;28;19949;-76
2022/11/01 03:54:10;;;;;;;;;;;9.10;99.90;;;;;;5009728;28;19936;-78
2022/11/01 03:56:41;;;;;;;;;;;9.10;99.90;;;;;;5015634;28;19933;-78
2022/11/01 03:59:13;;;;;;;;;;;9.10;99.90;;;;;;5010063;28;19929;-74
2022/11/01 04:01:45;;;;;;;;;;;9.10;99.90;;;;;;5024478;28;19933;-73
2022/11/01 04:04:11;;;;;;;;;;;9.10;99.90;;;;;;5024600;28;20035;-74
2022/11/01 04:06:38;;;;;;;;;;;9.10;99.90;;;;;;5025602;28;19930;-75
2022/11/01 04:09:09;;;;;;;;;;;9.10;99.90;;;;;;5025636;28;19929;-73
2022/11/01 04:11:36;;;;;;;;;;;9.10;99.90;;;;;;5025766;28;20287;-78
2022/11/01 04:22:28;;;;;;;;;;;9.00;99.90;;;;;;5009644;28;19929;-75
2022/11/01 04:25:02;;;;;;;;;;;9.10;99.90;;;;;;5012119;28;19929;-76
2022/11/01 04:27:34;;;;;;;;;;;9.10;99.90;;;;;;5025639;28;19952;-74
2022/11/01 04:30:06;;;;;;;;;;;9.10;99.90;;;;;;5026733;28;19926;-74
2022/11/01 04:32:41;;;;;;;;;;;9.10;99.90;;;;;;5026923;28;19925;-74
2022/11/01 04:35:12;;;;;;;;;;;9.20;99.90;;;;;;5023732;28;19929;-74
2022/11/01 04:37:44;;;;;;;;;;;9.20;99.90;;;;;;5009816;28;19932;-75
2022/11/01 04:40:16;;;;;;;;;;;9.20;99.90;;;;;;5010046;28;20507;-74
2022/11/01 04:42:42;;;;;;;;;;;9.30;99.90;;;;;;5009787;28;19929;-76
2022/11/01 04:45:14;;;;;;;;;;;9.30;99.90;;;;;;4990723;28;20351;-74
2022/11/01 04:47:49;;;;;;;;;;;9.30;99.90;;;;;;5026074;28;19987;-74
2022/11/01 04:50:21;;;;;;;;;;;9.40;99.90;;;;;;5010892;28;19929;-75
2022/11/01 04:52:52;;;;;;;;;;;9.40;99.90;;;;;;5024912;28;19957;-76
2022/11/01 04:55:24;;;;;;;;;;;9.40;99.90;;;;;;5004247;28;19988;-74
2022/11/01 04:57:56;;;;;;;;;;;9.40;99.90;;;;;;5025422;28;20342;-74
2022/11/01 05:00:28;;;;;;;;;;;9.40;99.90;;;;;;5008702;28;19929;-76
2022/11/01 05:03:04;;;;;;;;;;;9.50;99.90;;;;;;5009108;28;19979;-74
2022/11/01 05:05:37;;;;;;;;;;;9.50;99.90;;;;;;5009011;28;19934;-76
2022/11/01 05:08:10;;;;;;;;;;;9.50;99.90;;;;;;5009600;28;19984;-74
2022/11/01 05:10:38;;;;;;;;;;;9.40;99.90;;;;;;5006369;28;19995;-74
2022/11/01 05:13:05;;;;;;;;;;;9.40;99.90;;;;;;5009073;28;19956;-76
2022/11/01 05:15:36;;;;;;;;;;;9.40;99.90;;;;;;5009349;28;19926;-76
2022/11/01 05:18:08;;;;;;;;;;;9.40;99.90;;;;;;5009000;28;19936;-76
2022/11/01 05:20:35;;;;;;;;;;;9.40;99.90;;;;;;5025410;28;19933;-75
2022/11/01 05:23:07;;;;;;;;;;;9.40;99.90;;;;;;4992744;28;19929;-76
2022/11/01 05:25:39;;;;;;;;;;;9.40;99.90;;;;;;5025276;28;19929;-77
2022/11/01 05:28:07;;;;;;;;;;;9.40;99.90;;;;;;5024823;28;19953;-76
2022/11/01 05:30:39;;;;;;;;;;;9.40;99.90;;;;;;5023400;28;20476;-76
2022/11/01 05:33:11;;;;;;;;;;;9.40;99.90;;;;;;5006888;28;19929;-77
2022/11/01 05:35:42;;;;;;;;;;;9.40;99.90;;;;;;5007945;28;19925;-78
2022/11/01 05:38:09;;;;;;;;;;;9.40;99.90;;;;;;5008835;28;19932;-76
2022/11/01 05:40:40;;;;;;;;;;;9.40;99.90;;;;;;5009264;28;19934;-76
2022/11/01 05:43:07;;;;;;;;;;;9.40;99.90;;;;;;5024596;28;20019;-75
2022/11/01 05:45:39;;;;;;;;;;;9.40;99.90;;;;;;5008990;28;20446;-76
2022/11/01 05:48:05;;;;;;;;;;;9.40;99.90;;;;;;5012432;28;20383;-75
2022/11/01 05:50:32;;;;;;;;;;;9.40;99.90;;;;;;5024717;28;19930;-76
2022/11/01 05:53:05;;;;;;;;;;;9.40;99.90;;;;;;5007709;28;19925;-76
2022/11/01 05:55:32;;;;;;;;;;;9.40;99.90;;;;;;5024868;28;19961;-76
2022/11/01 05:58:03;;;;;;;;;;;9.40;99.90;;;;;;5024751;28;19932;-76
2022/11/01 06:00:35;;;;;;;;;;;9.40;99.90;;;;;;5025186;28;19987;-77
2022/11/01 06:03:07;;;;;;;;;;;9.50;99.90;;;;;;5024610;28;19976;-75
2022/11/01 06:05:38;;;;;;;;;;;9.50;99.90;;;;;;5006803;28;19926;-75
2022/11/01 06:08:05;;;;;;;;;;;9.60;99.90;;;;;;5010068;28;19929;-76
2022/11/01 06:10:32;;;;;;;;;;;9.70;99.90;;;;;;5019730;28;19980;-76
2022/11/01 06:13:03;;;;;;;;;;;9.70;99.90;;;;;;5023893;28;19926;-76
2022/11/01 06:15:35;;;;;;;;;;;9.80;99.90;;;;;;5024487;28;19999;-77
2022/11/01 06:18:07;;;;;;;;;;;9.80;99.90;;;;;;5024520;28;19957;-75
2022/11/01 06:20:38;;;;;;;;;;;9.80;99.90;;;;;;5010349;28;19980;-75
2022/11/01 06:23:10;;;;;;;;;;;9.80;99.90;;;;;;5008317;28;19925;-76
2022/11/01 06:25:41;;;;;;;;;;;9.90;99.90;;;;;;5007983;28;19926;-76
2022/11/01 06:28:13;;;;;;;;;;;10.00;99.90;;;;;;5026216;28;20489;-75
2022/11/01 06:30:45;;;;;;;;;;;10.00;99.90;;;;;;5029237;28;20358;-75
2022/11/01 06:33:16;;;;;;;;;;;10.10;99.90;;;;;;5027590;28;20430;-76
2022/11/01 06:35:48;;;;;;;;;;;10.20;99.90;;;;;;5013719;28;19925;-75
2022/11/01 06:38:19;;;;;;;;;;;10.20;99.90;;;;;;5010217;28;19933;-75
2022/11/01 06:40:46;;;;;;;;;;;10.30;99.90;;;;;;5014024;28;19925;-76
2022/11/01 06:43:17;;;;;;;;;;;10.60;99.90;;;;;;5011388;28;19933;-76
2022/11/01 06:45:49;;;;;;;;;;;10.90;99.90;;;;;;5012448;28;19933;-76
2022/11/01 06:48:21;;;;;;;;;;;11.30;99.90;;;;;;5014649;28;19929;-76
2022/11/01 06:50:54;;;;;;;;;;;11.50;99.90;;;;;;5015127;28;19925;-75
2022/11/01 06:53:26;;;;;;;;;;;12.00;99.90;;;;;;5008572;28;20520;-75
2022/11/01 06:55:58;;;;;;;;;;;12.20;99.90;;;;;;5027134;28;19955;-75
2022/11/01 06:58:30;;;;;;;;;;;12.30;99.90;;;;;;5015283;28;19929;-75
2022/11/01 07:01:01;;;;;;;;;;;12.40;99.90;;;;;;5028213;28;19925;-75
2022/11/01 07:03:33;;;;;;;;;;;12.50;99.90;;;;;;5027093;28;19964;-75
2022/11/01 07:06:00;;;;;;;;;;;12.60;99.90;;;;;;5027812;28;19956;-76
2022/11/01 07:08:31;;;;;;;;;;;12.70;99.90;;;;;;5028930;28;19975;-77
2022/11/01 07:11:03;;;;;;;;;;;12.70;99.90;;;;;;5010165;28;19932;-75
2022/11/01 07:13:32;;;;;;;;;;;12.80;99.90;;;;;;5028195;28;19984;-75
2022/11/01 07:16:04;;;;;;;;;;;12.80;99.90;;;;;;5009712;28;19926;-74
2022/11/01 07:18:36;;;;;;;;;;;12.90;99.90;;;;;;5012887;28;20425;-74
2022/11/01 07:21:08;;;;;;;;;;;12.90;99.90;;;;;;5011394;28;19947;-76
2022/11/01 07:23:39;;;;;;;;;;;13.00;99.90;;;;;;5011949;28;20374;-73
2022/11/01 07:26:06;;;;;;;;;;;13.10;99.90;;;;;;5011622;28;19933;-75
2022/11/01 07:28:38;;;;;;;;;;;13.10;99.90;;;;;;5010106;28;19971;-74
2022/11/01 07:31:09;;;;;;;;;;;13.30;99.90;;;;;;5027266;28;19925;-74
2022/11/01 07:33:41;;;;;;;;;;;13.40;99.90;;;;;;5010671;28;19925;-76
2022/11/01 07:36:08;;;;;;;;;;;13.40;99.90;;;;;;4995688;28;19939;-74
2022/11/01 07:38:39;;;;;;;;;;;13.60;99.90;;;;;;4994723;28;20532;-74
2022/11/01 07:41:11;;;;;;;;;;;13.70;99.90;;;;;;5027685;28;19926;-72
2022/11/01 07:43:43;;;;;;;;;;;13.80;99.90;;;;;;5008056;28;20319;-76
2022/11/01 07:46:14;;;;;;;;;;;13.90;99.90;;;;;;5024887;28;20449;-74
2022/11/01 07:48:46;;;;;;;;;;;14.00;99.90;;;;;;5009624;28;19933;-74
2022/11/01 07:51:17;;;;;;;;;;;14.10;99.90;;;;;;5023810;28;19945;-76
2022/11/01 07:53:49;;;;;;;;;;;14.20;99.90;;;;;;5024942;28;19979;-75
2022/11/01 07:56:15;;;;;;;;;;;14.20;99.90;;;;;;5028079;28;19933;-74
2022/11/01 07:58:47;;;;;;;;;;;14.30;99.90;;;;;;5027259;28;19925;-77
2022/11/01 08:01:19;;;;;;;;;;;14.30;99.90;;;;;;5026938;28;19925;-74
2022/11/01 08:03:50;;;;;;;;;;;14.40;99.90;;;;;;5009604;28;20329;-76
2022/11/01 08:06:22;;;;;;;;;;;14.40;99.90;;;;;;5006772;28;19992;-77
2022/11/01 08:08:54;;;;;;;;;;;14.50;99.90;;;;;;5012384;28;19983;-74
2022/11/01 08:11:20;;;;;;;;;;;14.60;99.90;;;;;;5010350;28;19925;-76
2022/11/01 08:13:52;;;;;;;;;;;14.60;99.90;;;;;;5026257;28;19925;-75
2022/11/01 08:16:23;;;;;;;;;;;14.60;99.90;;;;;;5024937;28;19926;-74
2022/11/01 08:18:55;;;;;;;;;;;14.60;99.90;;;;;;5010785;28;19926;-74
2022/11/01 08:21:26;;;;;;;;;;;14.60;99.90;;;;;;5007689;28;19933;-74
2022/11/01 08:23:58;;;;;;;;;;;14.60;99.90;;;;;;5009233;28;19933;-74
2022/11/01 08:26:30;;;;;;;;;;;14.60;99.90;;;;;;5009771;28;19965;-75
2022/11/01 08:29:01;;;;;;;;;;;14.60;99.90;;;;;;5024693;28;20391;-73
2022/11/01 08:31:33;;;;;;;;;;;14.60;99.90;;;;;;5026485;28;19980;-74
2022/11/01 08:34:00;;;;;;;;;;;14.60;99.90;;;;;;5025002;28;20378;-74
2022/11/01 08:36:32;;;;;;;;;;;14.50;99.90;;;;;;5007844;28;19987;-75
2022/11/01 08:39:04;;;;;;;;;;;14.50;99.90;;;;;;5026500;28;19926;-76
2022/11/01 08:41:36;;;;;;;;;;;14.60;99.90;;;;;;5023375;28;19929;-75
2022/11/01 08:44:02;;;;;;;;;;;14.50;99.90;;;;;;5009621;28;19930;-75
2022/11/01 08:46:29;;;;;;;;;;;14.50;99.90;;;;;;5026506;28;19992;-75
2022/11/01 08:49:01;;;;;;;;;;;14.50;99.90;;;;;;5011679;28;19929;-74
2022/11/01 08:51:32;;;;;;;;;;;14.50;99.90;;;;;;5009246;28;19976;-77
2022/11/01 08:54:04;;;;;;;;;;;14.50;99.90;;;;;;5024589;28;19925;-78
2022/11/01 08:56:31;;;;;;;;;;;14.50;99.90;;;;;;5025691;28;19925;-77
2022/11/01 08:59:03;;;;;;;;;;;14.50;99.90;;;;;;4993839;28;19926;-76
2022/11/01 09:01:34;;;;;;;;;;;14.50;99.90;;;;;;5010694;28;19929;-75
2022/11/01 09:04:06;;;;;;;;;;;14.50;99.90;;;;;;5009223;28;19979;-74
2022/11/01 09:06:37;;;;;;;;;;;14.60;99.90;;;;;;5025578;28;20331;-75
2022/11/01 09:09:09;;;;;;;;;;;14.60;99.90;;;;;;5005410;28;19976;-75
2022/11/01 09:11:41;;;;;;;;;;;14.70;99.90;;;;;;5024672;28;19940;-75
2022/11/01 09:14:12;;;;;;;;;;;14.80;99.90;;;;;;5007408;28;19930;-75
2022/11/01 09:16:44;;;;;;;;;;;14.80;99.90;;;;;;4989582;28;19961;-74
2022/11/01 09:19:15;;;;;;;;;;;14.80;99.90;;;;;;5009504;28;20458;-75
2022/11/01 09:21:47;;;;;;;;;;;14.80;99.90;;;;;;5025714;28;19933;-75
2022/11/01 09:24:19;;;;;;;;;;;14.80;99.90;;;;;;5007731;28;19926;-77
2022/11/01 09:26:50;;;;;;;;;;;14.90;99.90;;;;;;5025681;28;19926;-76
2022/11/01 09:29:22;;;;;;;;;;;14.90;99.90;;;;;;5010911;28;19925;-77
2022/11/01 09:31:54;;;;;;;;;;;14.90;99.90;;;;;;5008884;28;19925;-75
2022/11/01 09:34:25;;;;;;;;;;;15.00;99.90;;;;;;5005271;28;19925;-76
2022/11/01 09:36:57;;;;;;;;;;;15.00;99.90;;;;;;5025046;28;19926;-74
2022/11/01 09:39:28;;;;;;;;;;;15.00;99.90;;;;;;5009697;28;20379;-74
2022/11/01 09:42:05;;;;;;;;;;;15.00;99.90;;;;;;5009553;28;19925;-76
2022/11/01 09:44:43;;;;;;;;;;;15.10;99.90;;;;;;5005325;28;20295;-76
2022/11/01 09:47:17;;;;;;;;;;;15.20;99.90;;;;;;5009093;28;19975;-76
2022/11/01 09:49:50;;;;;;;;;;;15.30;99.90;;;;;;5009465;28;19987;-76
2022/11/01 09:52:23;;;;;;;;;;;15.40;99.90;;;;;;5025693;28;19971;-76
2022/11/01 09:54:56;;;;;;;;;;;15.50;99.90;;;;;;5023179;28;19926;-75
2022/11/01 09:57:30;;;;;;;;;;;15.50;99.90;;;;;;5024223;28;20403;-75
2022/11/01 10:00:17;;;;;;;;;;;15.60;99.90;;;;;;5006248;28;19926;-76
2022/11/01 10:03:14;;;;;;;;;;;15.60;99.90;;;;;;5009005;28;19926;-76
2022/11/01 10:06:06;;;;;;;;;;;15.70;99.90;;;;;;4991801;28;19979;-75
2022/11/01 10:08:47;;;;;;;;;;;15.70;99.90;;;;;;5010184;28;19956;-77
2022/11/01 10:11:26;;;;;;;;;;;15.80;99.90;;;;;;5023866;28;20388;-76
2022/11/01 10:14:01;;;;;;;;;;;15.80;99.90;;;;;;5008004;28;20400;-75
2022/11/01 10:16:36;;;;;;;;;;;15.90;99.90;;;;;;5008053;28;19926;-74
2022/11/01 10:19:16;;;;;;;;;;;16.00;99.90;;;;;;5024457;28;20347;-76
2022/11/01 10:21:53;;;;;;;;;;;16.00;99.90;;;;;;5008245;28;19929;-76
2022/11/01 10:24:35;;;;;;;;;;;16.00;99.90;;;;;;5007901;28;20457;-74
2022/11/01 10:27:45;;;;;;;;;;;16.00;99.90;;;;;;5022740;28;19929;-75
2022/11/01 10:30:14;;;;;;;;;;;16.00;99.90;;;;;;4929851;29;20398;-75
2022/11/01 10:32:56;;;;;;;;;;;16.00;99.90;;;;;;4914285;29;19951;-75
2022/11/01 10:35:34;;;;;;;;;;;16.10;99.90;;;;;;4974983;28;19925;-75
2022/11/01 10:38:05;;;;;;;;;;;16.10;99.90;;;;;;4991889;28;19925;-75
2022/11/01 10:40:39;;;;;;;;;;;16.20;99.90;;;;;;5006061;28;19929;-77
2022/11/01 10:43:12;;;;;;;;;;;16.20;99.90;;;;;;5024508;28;19967;-74
2022/11/01 10:45:45;;;;;;;;;;;16.30;99.90;;;;;;5024961;28;19948;-76
2022/11/01 10:48:24;;;;;;;;;;;16.40;99.90;;;;;;5005745;28;20384;-75
2022/11/01 10:50:59;;;;;;;;;;;16.40;99.90;;;;;;5024485;28;19937;-76
2022/11/01 10:53:34;;;;;;;;;;;16.40;99.90;;;;;;5007484;28;20504;-76
2022/11/01 10:56:08;;;;;;;;;;;16.40;99.90;;;;;;5007466;28;20289;-76
2022/11/01 10:58:54;;;;;;;;;;;16.40;99.90;;;;;;5025899;28;19979;-77
2022/11/01 11:01:26;;;;;;;;;;;16.40;99.90;;;;;;5024854;28;19972;-76
2022/11/01 11:04:00;;;;;;;;;;;16.40;99.90;;;;;;5023773;28;19983;-75
2022/11/01 11:06:26;;;;;;;;;;;16.40;99.90;;;;;;5025173;28;19976;-76
2022/11/01 11:08:58;;;;;;;;;;;16.40;99.90;;;;;;5025363;28;19932;-78
2022/11/01 11:11:40;;;;;;;;;;;16.40;99.90;;;;;;5024915;28;20008;-77
2022/11/01 11:14:12;;;;;;;;;;;16.40;99.90;;;;;;5009609;28;19936;-76
2022/11/01 11:16:56;;;;;;;;;;;16.40;99.90;;;;;;5011947;28;19987;-77
2022/11/01 11:19:28;;;;;;;;;;;16.50;99.90;;;;;;5009229;28;20396;-77
2022/11/01 11:22:01;;;;;;;;;;;16.50;99.90;;;;;;5011615;28;19952;-75
2022/11/01 11:24:27;;;;;;;;;;;16.50;99.90;;;;;;5027356;28;20574;-76
2022/11/01 11:27:00;;;;;;;;;;;16.40;99.90;;;;;;5028140;28;19980;-78
2022/11/01 11:29:47;;;;;;;;;;;16.50;99.90;;;;;;5010494;28;19983;-76
2022/11/01 11:32:19;;;;;;;;;;;16.50;99.90;;;;;;5010329;28;19929;-76
2022/11/01 11:34:52;;;;;;;;;;;16.50;99.90;;;;;;5011573;28;20399;-76
2022/11/01 11:37:25;;;;;;;;;;;16.60;99.90;;;;;;5010952;28;19925;-77
2022/11/01 11:40:15;;;;;;;;;;;16.50;99.90;;;;;;5013739;28;20402;-76
2022/11/01 11:42:47;;;;;;;;;;;16.50;99.90;;;;;;5027306;28;19971;-75
2022/11/01 11:45:22;;;;;;;;;;;16.50;99.90;;;;;;5027342;28;19926;-78
2022/11/01 11:48:32;;;;;;;;;;;16.60;99.90;;;;;;5012041;28;19936;-77
2022/11/01 11:51:01;;;;;;;;;;;16.60;99.90;;;;;;4931793;29;20263;-74
2022/11/01 11:53:34;;;;;;;;;;;16.70;99.90;;;;;;4929201;29;20984;-77
2022/11/01 11:56:07;;;;;;;;;;;16.70;99.90;;;;;;4972447;28;19933;-75
2022/11/01 11:58:49;;;;;;;;;;;16.70;99.90;;;;;;5009817;28;19929;-73
2022/11/01 12:01:22;;;;;;;;;;;16.70;99.90;;;;;;5009937;28;19933;-74
2022/11/01 12:03:56;;;;;;;;;;;16.70;99.90;;;;;;5023718;28;19929;-73
2022/11/01 12:06:27;;;;;;;;;;;16.60;99.90;;;;;;5009188;28;19929;-75
2022/11/01 12:08:59;;;;;;;;;;;16.60;99.90;;;;;;5007576;28;19955;-74
2022/11/01 12:11:39;;;;;;;;;;;16.60;99.90;;;;;;5009887;28;19929;-74
2022/11/01 12:14:18;;;;;;;;;;;16.60;99.90;;;;;;5004850;28;19929;-74
2022/11/01 12:16:50;;;;;;;;;;;16.60;99.90;;;;;;5008408;28;19936;-74
2022/11/01 12:19:25;;;;;;;;;;;16.70;99.90;;;;;;5006229;28;19933;-75
2022/11/01 12:21:52;;;;;;;;;;;16.80;99.90;;;;;;5023636;28;19930;-74
2022/11/01 12:24:36;;;;;;;;;;;16.70;99.90;;;;;;5022824;28;20384;-73
2022/11/01 12:27:12;;;;;;;;;;;16.70;99.90;;;;;;5024186;28;20027;-76
2022/11/01 12:29:58;;;;;;;;;;;16.80;99.90;;;;;;5023843;28;19929;-73
2022/11/01 12:32:27;;;;;;;;;;;16.80;99.90;;;;;;5006719;28;19933;-75
2022/11/01 12:35:02;;;;;;;;;;;16.80;99.90;;;;;;5001121;28;19929;-74
2022/11/01 12:37:42;;;;;;;;;;;16.80;99.90;;;;;;5005067;28;19995;-74
2022/11/01 12:40:20;;;;;;;;;;;16.90;99.90;;;;;;5005169;28;19961;-73
2022/11/01 12:42:49;;;;;;;;;;;16.80;99.90;;;;;;5009015;28;19933;-74
2022/11/01 12:45:20;;;;;;;;;;;16.80;99.90;;;;;;5021621;28;20450;-72
2022/11/01 12:47:56;;;;;;;;;;;16.80;99.90;;;;;;5007540;28;19929;-73
2022/11/01 12:50:32;;;;;;;;;;;16.80;99.90;;;;;;5008572;28;19929;-73
2022/11/01 12:53:03;;;;;;;;;;;16.80;99.90;;;;;;4992659;28;19979;-72
2022/11/01 12:55:30;;;;;;;;;;;16.80;99.90;;;;;;5004833;28;19937;-73
2022/11/01 12:58:02;;;;;;;;;;;16.80;99.90;;;;;;5003262;28;20362;-75
2022/11/01 13:00:40;;;;;;;;;;;16.80;99.90;;;;;;5022080;28;19994;-74
2022/11/01 13:03:20;;;;;;;;;;;16.80;99.90;;;;;;4989519;28;19980;-75
2022/11/01 13:06:00;;;;;;;;;;;16.80;99.90;;;;;;4990727;28;19934;-72
2022/11/01 13:08:46;;;;;;;;;;;16.80;99.90;;;;;;5008096;28;19933;-73
2022/11/01 13:11:36;;;;;;;;;;;16.70;99.90;;;;;;5022145;28;19979;-74
2022/11/01 13:14:23;;;;;;;;;;;16.70;99.90;;;;;;5020217;28;19925;-74
2022/11/01 13:16:53;;;;;;;;;;;16.60;99.90;;;;;;5021461;28;20018;-73
2022/11/01 13:19:22;;;;;;;;;;;16.60;99.90;;;;;;5005979;28;19933;-73
2022/11/01 13:22:17;;;;;;;;;;;16.60;99.90;;;;;;5007072;28;19933;-74
2022/11/01 13:25:00;;;;;;;;;;;16.60;99.90;;;;;;4994782;28;19940;-74
2022/11/01 13:27:36;;;;;;;;;;;16.60;99.90;;;;;;5022109;28;19925;-73
2022/11/01 13:30:11;;;;;;;;;;;16.60;99.90;;;;;;5005282;28;19934;-73
2022/11/01 13:32:41;;;;;;;;;;;16.60;99.90;;;;;;5021866;28;19938;-72
2022/11/01 13:35:15;;;;;;;;;;;16.60;99.90;;;;;;5005738;28;20011;-75
2022/11/01 13:37:56;;;;;;;;;;;16.50;99.90;;;;;;5021586;28;19987;-75
2022/11/01 13:40:39;;;;;;;;;;;16.50;99.90;;;;;;5005245;28;19983;-74
2022/11/01 13:43:09;;;;;;;;;;;16.40;99.90;;;;;;5007016;28;19929;-72
2022/11/01 13:45:59;;;;;;;;;;;16.40;99.90;;;;;;5020697;28;19930;-74
2022/11/01 13:48:42;;;;;;;;;;;16.40;99.90;;;;;;5003787;28;19983;-73
2022/11/01 13:51:20;;;;;;;;;;;16.40;99.90;;;;;;5006498;28;19972;-75
2022/11/01 13:53:56;;;;;;;;;;;16.50;99.90;;;;;;5005370;28;19925;-75
2022/11/01 13:56:28;;;;;;;;;;;16.50;99.90;;;;;;5019564;28;19933;-75
2022/11/01 13:58:59;;;;;;;;;;;16.50;99.90;;;;;;5020597;28;19926;-71
2022/11/01 14:01:34;;;;;;;;;;;16.50;99.90;;;;;;5005857;28;19999;-73
2022/11/01 14:04:07;;;;;;;;;;;16.40;99.90;;;;;;4989675;28;19925;-73
2022/11/01 14:06:40;;;;;;;;;;;16.40;99.90;;;;;;5020458;28;19979;-73
2022/11/01 14:09:28;;;;;;;;;;;16.20;99.90;;;;;;5004897;28;19933;-72
2022/11/01 14:12:03;;;;;;;;;;;16.20;99.90;;;;;;5002795;28;19976;-73
2022/11/01 14:14:41;;;;;;;;;;;16.10;99.90;;;;;;5003552;28;20388;-73
2022/11/01 14:17:18;;;;;;;;;;;16.00;99.90;;;;;;5004421;28;19934;-73
2022/11/01 14:19:57;;;;;;;;;;;16.00;99.90;;;;;;5018719;28;20560;-73
2022/11/01 14:22:31;;;;;;;;;;;15.90;99.90;;;;;;5003144;28;19925;-73
2022/11/01 14:25:23;;;;;;;;;;;15.90;99.90;;;;;;5000400;28;20017;-73
2022/11/01 14:28:19;;;;;;;;;;;15.90;99.90;;;;;;4999689;28;19933;-74
2022/11/01 14:30:52;;;;;;;;;;;15.80;99.90;;;;;;5003003;28;19964;-72
2022/11/01 14:33:23;;;;;;;;;;;15.80;99.90;;;;;;5004168;28;20479;-73
2022/11/01 14:35:56;;;;;;;;;;;15.80;99.90;;;;;;5020806;28;19926;-73
2022/11/01 14:38:27;;;;;;;;;;;15.70;99.90;;;;;;5006839;28;19988;-73
2022/11/01 14:40:59;;;;;;;;;;;15.70;99.90;;;;;;5023511;28;19937;-75
2022/11/01 14:43:33;;;;;;;;;;;15.70;99.90;;;;;;5006287;28;19934;-73
2022/11/01 14:46:09;;;;;;;;;;;15.70;99.90;;;;;;5006672;28;20344;-74
2022/11/01 14:49:00;;;;;;;;;;;15.70;99.90;;;;;;5022454;28;20342;-72
2022/11/01 14:51:36;;;;;;;;;;;15.60;99.90;;;;;;5026878;28;19956;-74
2022/11/01 14:54:26;;;;;;;;;;;15.60;99.90;;;;;;5025470;28;19929;-75
2022/11/01 14:56:58;;;;;;;;;;;15.60;99.90;;;;;;4993272;28;20376;-75
2022/11/01 14:59:30;;;;;;;;;;;15.60;99.90;;;;;;5012382;28;19960;-73
2022/11/01 15:02:05;;;;;;;;;;;15.50;99.90;;;;;;5026076;28;19926;-74
2022/11/01 15:04:39;;;;;;;;;;;15.50;99.90;;;;;;5010779;28;19929;-76
2022/11/01 15:07:25;;;;;;;;;;;15.50;99.90;;;;;;5010741;28;19960;-73